sensor_id;sensor_type;location;lat;lon;timestamp;P1;durP1;ratioP1;P2;durP2;ratioP2
4748;SDS011;2388;53.582;9.962;2024-02-14T00:02:16;2.40;;;2.13;;
4748;SDS011;2388;53.582;9.962;2024-02-14T00:04:42;2.20;;;1.43;;
4748;SDS011;2388;53.582;9.962;2024-02-14T00:07:07;4.30;;;1.63;;
4748;SDS011;2388;53.582;9.962;2024-02-14T00:09:33;3.30;;;2.03;;
4748;SDS011;2388;53.582;9.962;2024-02-14T00:11:59;1.50;;;1.40;;
4748;SDS011;2388;53.582;9.962;2024-02-14T00:14:25;4.10;;;2.23;;
4748;SDS011;2388;53.582;9.962;2024-02-14T00:16:50;3.40;;;1.30;;
4748;SDS011;2388;53.582;9.962;2024-02-14T00:19:16;4.07;;;1.93;;
4748;SDS011;2388;53.582;9.962;2024-02-14T00:21:41;2.70;;;1.33;;
4748;SDS011;2388;53.582;9.962;2024-02-14T00:24:07;3.73;;;1.73;;
4748;SDS011;2388;53.582;9.962;2024-02-14T00:26:33;1.97;;;1.80;;
4748;SDS011;2388;53.582;9.962;2024-02-14T00:28:58;4.57;;;1.40;;
4748;SDS011;2388;53.582;9.962;2024-02-14T00:31:24;1.67;;;1.57;;
4748;SDS011;2388;53.582;9.962;2024-02-14T00:33:49;3.90;;;1.63;;
4748;SDS011;2388;53.582;9.962;2024-02-14T00:36:15;7.00;;;2.23;;
4748;SDS011;2388;53.582;9.962;2024-02-14T00:38:41;1.50;;;1.20;;
4748;SDS011;2388;53.582;9.962;2024-02-14T00:41:06;1.80;;;1.57;;
4748;SDS011;2388;53.582;9.962;2024-02-14T00:43:32;4.47;;;1.83;;
4748;SDS011;2388;53.582;9.962;2024-02-14T00:45:57;3.47;;;1.60;;
4748;SDS011;2388;53.582;9.962;2024-02-14T00:48:23;4.23;;;1.60;;
4748;SDS011;2388;53.582;9.962;2024-02-14T00:50:48;1.77;;;1.20;;
4748;SDS011;2388;53.582;9.962;2024-02-14T00:53:14;7.60;;;1.97;;
4748;SDS011;2388;53.582;9.962;2024-02-14T00:55:39;2.17;;;1.60;;
4748;SDS011;2388;53.582;9.962;2024-02-14T00:58:05;2.40;;;1.27;;
4748;SDS011;2388;53.582;9.962;2024-02-14T01:00:31;3.63;;;1.50;;
4748;SDS011;2388;53.582;9.962;2024-02-14T01:02:57;2.00;;;1.20;;
4748;SDS011;2388;53.582;9.962;2024-02-14T01:05:22;1.37;;;1.27;;
4748;SDS011;2388;53.582;9.962;2024-02-14T01:07:48;1.60;;;1.40;;
4748;SDS011;2388;53.582;9.962;2024-02-14T01:10:14;3.30;;;1.63;;
4748;SDS011;2388;53.582;9.962;2024-02-14T01:12:39;3.77;;;1.70;;
4748;SDS011;2388;53.582;9.962;2024-02-14T01:15:05;1.13;;;1.03;;
4748;SDS011;2388;53.582;9.962;2024-02-14T01:17:31;6.13;;;1.23;;
4748;SDS011;2388;53.582;9.962;2024-02-14T01:19:57;1.33;;;1.23;;
4748;SDS011;2388;53.582;9.962;2024-02-14T01:22:23;3.83;;;1.10;;
4748;SDS011;2388;53.582;9.962;2024-02-14T01:24:49;3.37;;;1.67;;
4748;SDS011;2388;53.582;9.962;2024-02-14T01:27:14;3.43;;;1.37;;
4748;SDS011;2388;53.582;9.962;2024-02-14T01:29:41;2.33;;;1.40;;
4748;SDS011;2388;53.582;9.962;2024-02-14T01:32:07;4.70;;;1.90;;
4748;SDS011;2388;53.582;9.962;2024-02-14T01:34:34;1.77;;;1.67;;
4748;SDS011;2388;53.582;9.962;2024-02-14T01:37:00;2.07;;;1.50;;
4748;SDS011;2388;53.582;9.962;2024-02-14T01:39:25;4.40;;;1.43;;
4748;SDS011;2388;53.582;9.962;2024-02-14T01:41:51;6.83;;;1.57;;
4748;SDS011;2388;53.582;9.962;2024-02-14T01:44:17;1.50;;;1.40;;
4748;SDS011;2388;53.582;9.962;2024-02-14T01:46:43;1.87;;;1.40;;
4748;SDS011;2388;53.582;9.962;2024-02-14T01:49:09;1.43;;;1.33;;
4748;SDS011;2388;53.582;9.962;2024-02-14T01:51:36;2.60;;;1.83;;
4748;SDS011;2388;53.582;9.962;2024-02-14T01:54:04;1.67;;;1.53;;
4748;SDS011;2388;53.582;9.962;2024-02-14T01:56:31;1.67;;;1.57;;
4748;SDS011;2388;53.582;9.962;2024-02-14T01:58:56;1.80;;;1.70;;
4748;SDS011;2388;53.582;9.962;2024-02-14T02:01:23;5.00;;;1.80;;
4748;SDS011;2388;53.582;9.962;2024-02-14T02:03:49;2.13;;;1.20;;
4748;SDS011;2388;53.582;9.962;2024-02-14T02:06:14;1.93;;;1.83;;
4748;SDS011;2388;53.582;9.962;2024-02-14T02:08:42;4.10;;;1.77;;
4748;SDS011;2388;53.582;9.962;2024-02-14T02:11:09;3.20;;;1.97;;
4748;SDS011;2388;53.582;9.962;2024-02-14T02:13:34;1.70;;;1.57;;
4748;SDS011;2388;53.582;9.962;2024-02-14T02:16:00;2.50;;;1.40;;
4748;SDS011;2388;53.582;9.962;2024-02-14T02:18:30;1.60;;;1.50;;
4748;SDS011;2388;53.582;9.962;2024-02-14T02:20:56;4.57;;;2.17;;
4748;SDS011;2388;53.582;9.962;2024-02-14T02:23:22;3.80;;;2.20;;
4748;SDS011;2388;53.582;9.962;2024-02-14T02:25:47;15.77;;;3.17;;
4748;SDS011;2388;53.582;9.962;2024-02-14T02:28:13;4.87;;;1.77;;
4748;SDS011;2388;53.582;9.962;2024-02-14T02:30:39;1.50;;;1.40;;
4748;SDS011;2388;53.582;9.962;2024-02-14T02:33:05;2.80;;;2.00;;
4748;SDS011;2388;53.582;9.962;2024-02-14T02:35:30;5.77;;;1.90;;
4748;SDS011;2388;53.582;9.962;2024-02-14T02:37:56;2.23;;;1.57;;
4748;SDS011;2388;53.582;9.962;2024-02-14T02:40:22;2.80;;;1.90;;
4748;SDS011;2388;53.582;9.962;2024-02-14T02:42:48;5.47;;;1.87;;
4748;SDS011;2388;53.582;9.962;2024-02-14T02:45:15;1.50;;;1.40;;
4748;SDS011;2388;53.582;9.962;2024-02-14T02:47:41;6.00;;;2.00;;
4748;SDS011;2388;53.582;9.962;2024-02-14T02:50:07;4.17;;;1.70;;
4748;SDS011;2388;53.582;9.962;2024-02-14T02:52:33;6.83;;;1.83;;
4748;SDS011;2388;53.582;9.962;2024-02-14T02:54:59;4.50;;;1.87;;
4748;SDS011;2388;53.582;9.962;2024-02-14T02:57:26;3.13;;;1.67;;
4748;SDS011;2388;53.582;9.962;2024-02-14T02:59:52;1.53;;;1.43;;
4748;SDS011;2388;53.582;9.962;2024-02-14T03:02:19;6.23;;;2.00;;
4748;SDS011;2388;53.582;9.962;2024-02-14T03:04:45;1.30;;;1.20;;
4748;SDS011;2388;53.582;9.962;2024-02-14T03:07:11;1.87;;;1.70;;
4748;SDS011;2388;53.582;9.962;2024-02-14T03:09:37;2.17;;;2.07;;
4748;SDS011;2388;53.582;9.962;2024-02-14T03:12:03;2.27;;;1.97;;
4748;SDS011;2388;53.582;9.962;2024-02-14T03:14:29;2.83;;;2.03;;
4748;SDS011;2388;53.582;9.962;2024-02-14T03:16:57;5.93;;;1.93;;
4748;SDS011;2388;53.582;9.962;2024-02-14T03:19:24;1.60;;;1.50;;
4748;SDS011;2388;53.582;9.962;2024-02-14T03:21:51;11.07;;;2.33;;
4748;SDS011;2388;53.582;9.962;2024-02-14T03:24:17;3.00;;;2.47;;
4748;SDS011;2388;53.582;9.962;2024-02-14T03:26:43;1.90;;;1.73;;
4748;SDS011;2388;53.582;9.962;2024-02-14T03:29:08;3.00;;;1.93;;
4748;SDS011;2388;53.582;9.962;2024-02-14T03:31:34;5.07;;;1.97;;
4748;SDS011;2388;53.582;9.962;2024-02-14T03:34:00;2.30;;;2.20;;
4748;SDS011;2388;53.582;9.962;2024-02-14T03:36:25;2.97;;;1.87;;
4748;SDS011;2388;53.582;9.962;2024-02-14T03:38:55;2.70;;;1.80;;
4748;SDS011;2388;53.582;9.962;2024-02-14T03:41:21;1.90;;;1.50;;
4748;SDS011;2388;53.582;9.962;2024-02-14T03:43:47;1.90;;;1.80;;
4748;SDS011;2388;53.582;9.962;2024-02-14T03:46:14;1.90;;;1.80;;
4748;SDS011;2388;53.582;9.962;2024-02-14T03:48:40;3.73;;;2.03;;
4748;SDS011;2388;53.582;9.962;2024-02-14T03:51:08;5.10;;;2.40;;
4748;SDS011;2388;53.582;9.962;2024-02-14T03:53:33;3.60;;;2.03;;
4748;SDS011;2388;53.582;9.962;2024-02-14T03:55:59;1.90;;;1.80;;
4748;SDS011;2388;53.582;9.962;2024-02-14T03:58:24;1.90;;;1.70;;
4748;SDS011;2388;53.582;9.962;2024-02-14T04:00:50;1.60;;;1.50;;
4748;SDS011;2388;53.582;9.962;2024-02-14T04:03:16;3.47;;;1.97;;
4748;SDS011;2388;53.582;9.962;2024-02-14T04:05:41;2.07;;;1.60;;
4748;SDS011;2388;53.582;9.962;2024-02-14T04:08:07;5.57;;;2.23;;
4748;SDS011;2388;53.582;9.962;2024-02-14T04:10:35;3.23;;;1.90;;
4748;SDS011;2388;53.582;9.962;2024-02-14T04:13:03;3.60;;;1.87;;
4748;SDS011;2388;53.582;9.962;2024-02-14T04:15:29;2.27;;;2.03;;
4748;SDS011;2388;53.582;9.962;2024-02-14T04:17:55;2.60;;;1.90;;
4748;SDS011;2388;53.582;9.962;2024-02-14T04:20:21;2.17;;;2.00;;
4748;SDS011;2388;53.582;9.962;2024-02-14T04:22:46;2.97;;;2.33;;
4748;SDS011;2388;53.582;9.962;2024-02-14T04:25:12;5.77;;;3.03;;
4748;SDS011;2388;53.582;9.962;2024-02-14T04:27:37;2.80;;;2.10;;
4748;SDS011;2388;53.582;9.962;2024-02-14T04:30:03;6.40;;;1.93;;
4748;SDS011;2388;53.582;9.962;2024-02-14T04:32:29;6.20;;;2.50;;
4748;SDS011;2388;53.582;9.962;2024-02-14T04:34:54;2.93;;;2.60;;
4748;SDS011;2388;53.582;9.962;2024-02-14T04:37:20;3.70;;;2.53;;
4748;SDS011;2388;53.582;9.962;2024-02-14T04:39:45;4.20;;;2.80;;
4748;SDS011;2388;53.582;9.962;2024-02-14T04:42:11;3.17;;;2.90;;
4748;SDS011;2388;53.582;9.962;2024-02-14T04:44:37;4.17;;;2.90;;
4748;SDS011;2388;53.582;9.962;2024-02-14T04:47:03;3.90;;;2.90;;
4748;SDS011;2388;53.582;9.962;2024-02-14T04:49:28;5.30;;;2.87;;
4748;SDS011;2388;53.582;9.962;2024-02-14T04:51:54;4.03;;;2.70;;
4748;SDS011;2388;53.582;9.962;2024-02-14T04:54:20;6.37;;;2.77;;
4748;SDS011;2388;53.582;9.962;2024-02-14T04:56:45;4.97;;;3.53;;
4748;SDS011;2388;53.582;9.962;2024-02-14T04:59:11;5.80;;;2.77;;
4748;SDS011;2388;53.582;9.962;2024-02-14T05:01:37;3.40;;;2.70;;
4748;SDS011;2388;53.582;9.962;2024-02-14T05:04:04;5.80;;;2.83;;
4748;SDS011;2388;53.582;9.962;2024-02-14T05:06:30;3.83;;;3.53;;
4748;SDS011;2388;53.582;9.962;2024-02-14T05:08:55;3.97;;;3.10;;
4748;SDS011;2388;53.582;9.962;2024-02-14T05:11:21;5.87;;;3.30;;
4748;SDS011;2388;53.582;9.962;2024-02-14T05:13:46;3.23;;;3.00;;
4748;SDS011;2388;53.582;9.962;2024-02-14T05:16:12;4.07;;;3.50;;
4748;SDS011;2388;53.582;9.962;2024-02-14T05:18:38;6.47;;;3.83;;
4748;SDS011;2388;53.582;9.962;2024-02-14T05:21:06;3.20;;;2.93;;
4748;SDS011;2388;53.582;9.962;2024-02-14T05:23:33;3.30;;;3.00;;
4748;SDS011;2388;53.582;9.962;2024-02-14T05:25:59;3.30;;;2.97;;
4748;SDS011;2388;53.582;9.962;2024-02-14T05:28:27;3.00;;;2.70;;
4748;SDS011;2388;53.582;9.962;2024-02-14T05:30:53;4.60;;;3.30;;
4748;SDS011;2388;53.582;9.962;2024-02-14T05:33:18;3.67;;;3.37;;
4748;SDS011;2388;53.582;9.962;2024-02-14T05:35:47;3.10;;;2.90;;
4748;SDS011;2388;53.582;9.962;2024-02-14T05:38:13;3.13;;;2.80;;
4748;SDS011;2388;53.582;9.962;2024-02-14T05:40:39;3.13;;;2.83;;
4748;SDS011;2388;53.582;9.962;2024-02-14T05:43:05;3.47;;;2.97;;
4748;SDS011;2388;53.582;9.962;2024-02-14T05:45:32;3.97;;;3.07;;
4748;SDS011;2388;53.582;9.962;2024-02-14T05:47:57;5.40;;;3.30;;
4748;SDS011;2388;53.582;9.962;2024-02-14T05:50:23;5.17;;;2.87;;
4748;SDS011;2388;53.582;9.962;2024-02-14T05:52:49;2.87;;;2.60;;
4748;SDS011;2388;53.582;9.962;2024-02-14T05:55:14;4.47;;;3.37;;
4748;SDS011;2388;53.582;9.962;2024-02-14T05:57:40;3.27;;;3.00;;
4748;SDS011;2388;53.582;9.962;2024-02-14T06:00:06;3.20;;;2.97;;
4748;SDS011;2388;53.582;9.962;2024-02-14T06:02:34;2.60;;;2.50;;
4748;SDS011;2388;53.582;9.962;2024-02-14T06:04:59;3.70;;;2.90;;
4748;SDS011;2388;53.582;9.962;2024-02-14T06:07:25;3.10;;;2.80;;
4748;SDS011;2388;53.582;9.962;2024-02-14T06:09:57;3.27;;;3.07;;
4748;SDS011;2388;53.582;9.962;2024-02-14T06:12:22;3.70;;;3.50;;
4748;SDS011;2388;53.582;9.962;2024-02-14T06:14:48;3.73;;;3.13;;
4748;SDS011;2388;53.582;9.962;2024-02-14T06:17:14;3.30;;;3.10;;
4748;SDS011;2388;53.582;9.962;2024-02-14T06:19:40;2.90;;;2.70;;
4748;SDS011;2388;53.582;9.962;2024-02-14T06:22:06;3.17;;;2.87;;
4748;SDS011;2388;53.582;9.962;2024-02-14T06:24:31;3.87;;;3.20;;
4748;SDS011;2388;53.582;9.962;2024-02-14T06:26:57;3.40;;;3.20;;
4748;SDS011;2388;53.582;9.962;2024-02-14T06:29:22;3.10;;;2.90;;
4748;SDS011;2388;53.582;9.962;2024-02-14T06:31:48;4.10;;;2.30;;
4748;SDS011;2388;53.582;9.962;2024-02-14T06:34:14;2.90;;;2.70;;
4748;SDS011;2388;53.582;9.962;2024-02-14T06:36:40;3.77;;;2.77;;
4748;SDS011;2388;53.582;9.962;2024-02-14T06:39:06;3.57;;;3.30;;
4748;SDS011;2388;53.582;9.962;2024-02-14T06:41:32;3.10;;;2.90;;
4748;SDS011;2388;53.582;9.962;2024-02-14T06:43:57;4.67;;;3.40;;
4748;SDS011;2388;53.582;9.962;2024-02-14T06:46:23;2.93;;;2.83;;
4748;SDS011;2388;53.582;9.962;2024-02-14T06:48:48;3.97;;;3.40;;
4748;SDS011;2388;53.582;9.962;2024-02-14T06:51:14;3.70;;;3.50;;
4748;SDS011;2388;53.582;9.962;2024-02-14T06:53:39;3.30;;;3.00;;
4748;SDS011;2388;53.582;9.962;2024-02-14T06:56:05;4.23;;;3.80;;
4748;SDS011;2388;53.582;9.962;2024-02-14T06:58:31;4.10;;;3.30;;
4748;SDS011;2388;53.582;9.962;2024-02-14T07:00:56;3.10;;;2.90;;
4748;SDS011;2388;53.582;9.962;2024-02-14T07:03:22;3.60;;;3.30;;
4748;SDS011;2388;53.582;9.962;2024-02-14T07:05:47;3.70;;;3.40;;
4748;SDS011;2388;53.582;9.962;2024-02-14T07:08:13;4.30;;;3.30;;
4748;SDS011;2388;53.582;9.962;2024-02-14T07:10:40;4.30;;;3.90;;
4748;SDS011;2388;53.582;9.962;2024-02-14T07:13:05;4.50;;;4.13;;
4748;SDS011;2388;53.582;9.962;2024-02-14T07:15:31;12.67;;;10.07;;
4748;SDS011;2388;53.582;9.962;2024-02-14T07:17:56;13.00;;;10.00;;
4748;SDS011;2388;53.582;9.962;2024-02-14T07:20:23;10.27;;;7.37;;
4748;SDS011;2388;53.582;9.962;2024-02-14T07:22:51;8.00;;;7.17;;
4748;SDS011;2388;53.582;9.962;2024-02-14T07:25:18;7.87;;;7.07;;
4748;SDS011;2388;53.582;9.962;2024-02-14T07:27:44;7.90;;;6.40;;
4748;SDS011;2388;53.582;9.962;2024-02-14T07:30:11;5.03;;;4.50;;
4748;SDS011;2388;53.582;9.962;2024-02-14T07:32:37;4.77;;;3.80;;
4748;SDS011;2388;53.582;9.962;2024-02-14T07:35:03;4.50;;;3.60;;
4748;SDS011;2388;53.582;9.962;2024-02-14T07:37:30;2.90;;;2.70;;
4748;SDS011;2388;53.582;9.962;2024-02-14T07:39:55;5.00;;;3.47;;
4748;SDS011;2388;53.582;9.962;2024-02-14T07:42:21;3.53;;;3.33;;
4748;SDS011;2388;53.582;9.962;2024-02-14T07:44:46;3.70;;;3.23;;
4748;SDS011;2388;53.582;9.962;2024-02-14T07:47:12;2.70;;;2.50;;
4748;SDS011;2388;53.582;9.962;2024-02-14T07:49:38;3.13;;;2.93;;
4748;SDS011;2388;53.582;9.962;2024-02-14T07:52:04;3.83;;;3.30;;
4748;SDS011;2388;53.582;9.962;2024-02-14T07:54:30;2.93;;;2.73;;
4748;SDS011;2388;53.582;9.962;2024-02-14T07:56:55;2.70;;;2.60;;
4748;SDS011;2388;53.582;9.962;2024-02-14T07:59:21;3.17;;;2.80;;
4748;SDS011;2388;53.582;9.962;2024-02-14T08:01:46;2.77;;;2.60;;
4748;SDS011;2388;53.582;9.962;2024-02-14T08:04:12;4.63;;;3.50;;
4748;SDS011;2388;53.582;9.962;2024-02-14T08:06:38;2.53;;;2.40;;
4748;SDS011;2388;53.582;9.962;2024-02-14T08:09:03;3.00;;;2.60;;
4748;SDS011;2388;53.582;9.962;2024-02-14T08:11:31;3.67;;;3.40;;
4748;SDS011;2388;53.582;9.962;2024-02-14T08:13:57;3.53;;;2.63;;
4748;SDS011;2388;53.582;9.962;2024-02-14T08:16:23;3.33;;;3.00;;
4748;SDS011;2388;53.582;9.962;2024-02-14T08:18:49;3.10;;;2.90;;
4748;SDS011;2388;53.582;9.962;2024-02-14T08:21:15;4.63;;;3.00;;
4748;SDS011;2388;53.582;9.962;2024-02-14T08:23:41;3.00;;;2.80;;
4748;SDS011;2388;53.582;9.962;2024-02-14T08:26:07;3.10;;;2.90;;
4748;SDS011;2388;53.582;9.962;2024-02-14T08:28:35;3.40;;;3.20;;
4748;SDS011;2388;53.582;9.962;2024-02-14T08:31:01;6.53;;;3.13;;
4748;SDS011;2388;53.582;9.962;2024-02-14T08:33:27;3.10;;;2.80;;
4748;SDS011;2388;53.582;9.962;2024-02-14T08:35:53;4.50;;;3.60;;
4748;SDS011;2388;53.582;9.962;2024-02-14T08:38:22;4.00;;;3.50;;
4748;SDS011;2388;53.582;9.962;2024-02-14T08:40:48;4.70;;;3.40;;
4748;SDS011;2388;53.582;9.962;2024-02-14T08:43:13;3.60;;;3.40;;
4748;SDS011;2388;53.582;9.962;2024-02-14T08:45:39;4.27;;;3.50;;
4748;SDS011;2388;53.582;9.962;2024-02-14T08:48:04;11.13;;;7.47;;
4748;SDS011;2388;53.582;9.962;2024-02-14T08:50:31;4.27;;;3.93;;
4748;SDS011;2388;53.582;9.962;2024-02-14T08:52:57;4.20;;;3.90;;
4748;SDS011;2388;53.582;9.962;2024-02-14T08:55:22;4.80;;;3.30;;
4748;SDS011;2388;53.582;9.962;2024-02-14T08:57:48;3.93;;;3.50;;
4748;SDS011;2388;53.582;9.962;2024-02-14T09:00:13;4.27;;;3.97;;
4748;SDS011;2388;53.582;9.962;2024-02-14T09:02:44;3.40;;;3.20;;
4748;SDS011;2388;53.582;9.962;2024-02-14T09:05:10;4.07;;;3.77;;
4748;SDS011;2388;53.582;9.962;2024-02-14T09:07:36;3.60;;;3.40;;
4748;SDS011;2388;53.582;9.962;2024-02-14T09:10:01;10.77;;;7.10;;
4748;SDS011;2388;53.582;9.962;2024-02-14T09:12:27;6.33;;;5.13;;
4748;SDS011;2388;53.582;9.962;2024-02-14T09:14:53;4.47;;;4.17;;
4748;SDS011;2388;53.582;9.962;2024-02-14T09:17:18;10.53;;;9.40;;
4748;SDS011;2388;53.582;9.962;2024-02-14T09:19:44;8.60;;;7.37;;
4748;SDS011;2388;53.582;9.962;2024-02-14T09:22:09;8.27;;;7.23;;
4748;SDS011;2388;53.582;9.962;2024-02-14T09:24:34;5.70;;;5.17;;
4748;SDS011;2388;53.582;9.962;2024-02-14T09:27:00;4.37;;;4.07;;
4748;SDS011;2388;53.582;9.962;2024-02-14T09:29:27;3.17;;;2.93;;
4748;SDS011;2388;53.582;9.962;2024-02-14T09:31:53;6.50;;;3.57;;
4748;SDS011;2388;53.582;9.962;2024-02-14T09:34:19;4.57;;;4.27;;
4748;SDS011;2388;53.582;9.962;2024-02-14T09:36:47;3.43;;;3.17;;
4748;SDS011;2388;53.582;9.962;2024-02-14T09:39:14;3.37;;;2.70;;
4748;SDS011;2388;53.582;9.962;2024-02-14T09:41:42;2.73;;;2.50;;
4748;SDS011;2388;53.582;9.962;2024-02-14T09:44:12;3.77;;;3.50;;
4748;SDS011;2388;53.582;9.962;2024-02-14T09:46:38;4.60;;;4.03;;
4748;SDS011;2388;53.582;9.962;2024-02-14T09:49:04;2.53;;;2.40;;
4748;SDS011;2388;53.582;9.962;2024-02-14T09:51:31;2.43;;;2.33;;
4748;SDS011;2388;53.582;9.962;2024-02-14T09:53:56;2.83;;;2.20;;
4748;SDS011;2388;53.582;9.962;2024-02-14T09:56:26;2.33;;;2.13;;
4748;SDS011;2388;53.582;9.962;2024-02-14T09:58:52;5.20;;;1.90;;
4748;SDS011;2388;53.582;9.962;2024-02-14T10:01:22;1.90;;;1.80;;
4748;SDS011;2388;53.582;9.962;2024-02-14T10:03:50;3.50;;;2.40;;
4748;SDS011;2388;53.582;9.962;2024-02-14T10:06:16;1.90;;;1.80;;
4748;SDS011;2388;53.582;9.962;2024-02-14T10:08:43;2.10;;;2.00;;
4748;SDS011;2388;53.582;9.962;2024-02-14T10:11:09;2.73;;;2.53;;
4748;SDS011;2388;53.582;9.962;2024-02-14T10:13:35;26.53;;;9.57;;
4748;SDS011;2388;53.582;9.962;2024-02-14T10:16:01;2.43;;;2.30;;
4748;SDS011;2388;53.582;9.962;2024-02-14T10:18:26;3.03;;;2.90;;
4748;SDS011;2388;53.582;9.962;2024-02-14T10:20:55;2.40;;;2.30;;
4748;SDS011;2388;53.582;9.962;2024-02-14T10:23:21;2.60;;;2.43;;
4748;SDS011;2388;53.582;9.962;2024-02-14T10:25:48;2.63;;;2.50;;
4748;SDS011;2388;53.582;9.962;2024-02-14T10:28:15;3.37;;;3.17;;
4748;SDS011;2388;53.582;9.962;2024-02-14T10:30:41;3.00;;;2.77;;
4748;SDS011;2388;53.582;9.962;2024-02-14T10:33:11;2.70;;;2.60;;
4748;SDS011;2388;53.582;9.962;2024-02-14T10:35:36;3.40;;;3.20;;
4748;SDS011;2388;53.582;9.962;2024-02-14T10:38:06;5.53;;;5.00;;
4748;SDS011;2388;53.582;9.962;2024-02-14T10:40:34;3.37;;;3.17;;
4748;SDS011;2388;53.582;9.962;2024-02-14T10:43:01;3.67;;;3.47;;
4748;SDS011;2388;53.582;9.962;2024-02-14T10:45:27;3.10;;;2.90;;
4748;SDS011;2388;53.582;9.962;2024-02-14T10:47:52;2.93;;;2.73;;
4748;SDS011;2388;53.582;9.962;2024-02-14T10:50:22;3.07;;;2.87;;
4748;SDS011;2388;53.582;9.962;2024-02-14T10:52:52;3.23;;;2.63;;
4748;SDS011;2388;53.582;9.962;2024-02-14T10:55:21;3.13;;;2.80;;
4748;SDS011;2388;53.582;9.962;2024-02-14T10:57:51;3.20;;;2.90;;
4748;SDS011;2388;53.582;9.962;2024-02-14T11:00:19;3.33;;;3.13;;
4748;SDS011;2388;53.582;9.962;2024-02-14T11:02:45;2.17;;;2.07;;
4748;SDS011;2388;53.582;9.962;2024-02-14T11:05:12;2.40;;;2.30;;
4748;SDS011;2388;53.582;9.962;2024-02-14T11:07:45;2.87;;;2.70;;
4748;SDS011;2388;53.582;9.962;2024-02-14T11:10:17;2.80;;;2.70;;
4748;SDS011;2388;53.582;9.962;2024-02-14T11:12:43;2.80;;;2.70;;
4748;SDS011;2388;53.582;9.962;2024-02-14T11:15:22;3.43;;;3.23;;
4748;SDS011;2388;53.582;9.962;2024-02-14T11:18:03;3.63;;;3.43;;
4748;SDS011;2388;53.582;9.962;2024-02-14T11:20:33;3.53;;;3.33;;
4748;SDS011;2388;53.582;9.962;2024-02-14T11:23:01;4.10;;;3.80;;
4748;SDS011;2388;53.582;9.962;2024-02-14T11:25:31;4.70;;;4.03;;
4748;SDS011;2388;53.582;9.962;2024-02-14T11:28:14;9.20;;;3.60;;
4748;SDS011;2388;53.582;9.962;2024-02-14T11:30:40;3.93;;;3.63;;
4748;SDS011;2388;53.582;9.962;2024-02-14T11:33:12;4.47;;;4.20;;
4748;SDS011;2388;53.582;9.962;2024-02-14T11:35:46;4.23;;;3.93;;
4748;SDS011;2388;53.582;9.962;2024-02-14T11:38:14;4.30;;;4.03;;
4748;SDS011;2388;53.582;9.962;2024-02-14T11:40:40;4.73;;;4.33;;
4748;SDS011;2388;53.582;9.962;2024-02-14T11:43:12;5.03;;;4.47;;
4748;SDS011;2388;53.582;9.962;2024-02-14T11:45:39;5.00;;;4.70;;
4748;SDS011;2388;53.582;9.962;2024-02-14T11:48:07;4.97;;;4.47;;
4748;SDS011;2388;53.582;9.962;2024-02-14T11:50:33;4.30;;;3.90;;
4748;SDS011;2388;53.582;9.962;2024-02-14T11:52:59;4.33;;;4.07;;
4748;SDS011;2388;53.582;9.962;2024-02-14T11:55:28;4.93;;;4.53;;
4748;SDS011;2388;53.582;9.962;2024-02-14T11:57:55;5.17;;;4.87;;
4748;SDS011;2388;53.582;9.962;2024-02-14T12:00:21;4.63;;;4.23;;
4748;SDS011;2388;53.582;9.962;2024-02-14T12:02:46;4.43;;;4.13;;
4748;SDS011;2388;53.582;9.962;2024-02-14T12:05:12;4.77;;;4.47;;
4748;SDS011;2388;53.582;9.962;2024-02-14T12:07:39;4.10;;;3.90;;
4748;SDS011;2388;53.582;9.962;2024-02-14T12:10:05;4.40;;;4.20;;
4748;SDS011;2388;53.582;9.962;2024-02-14T12:12:31;4.40;;;4.10;;
4748;SDS011;2388;53.582;9.962;2024-02-14T12:14:57;5.37;;;4.97;;
4748;SDS011;2388;53.582;9.962;2024-02-14T12:17:23;6.43;;;5.67;;
4748;SDS011;2388;53.582;9.962;2024-02-14T12:19:49;5.73;;;4.23;;
4748;SDS011;2388;53.582;9.962;2024-02-14T12:22:15;4.97;;;4.50;;
4748;SDS011;2388;53.582;9.962;2024-02-14T12:24:45;4.57;;;4.27;;
4748;SDS011;2388;53.582;9.962;2024-02-14T12:27:12;4.93;;;4.63;;
4748;SDS011;2388;53.582;9.962;2024-02-14T12:29:37;5.00;;;4.60;;
4748;SDS011;2388;53.582;9.962;2024-02-14T12:32:06;4.47;;;4.17;;
4748;SDS011;2388;53.582;9.962;2024-02-14T12:34:32;5.30;;;4.90;;
4748;SDS011;2388;53.582;9.962;2024-02-14T12:36:58;5.27;;;4.80;;
4748;SDS011;2388;53.582;9.962;2024-02-14T12:39:24;5.80;;;5.30;;
4748;SDS011;2388;53.582;9.962;2024-02-14T12:41:51;5.53;;;5.03;;
4748;SDS011;2388;53.582;9.962;2024-02-14T12:44:17;5.70;;;5.20;;
4748;SDS011;2388;53.582;9.962;2024-02-14T12:46:42;5.87;;;5.33;;
4748;SDS011;2388;53.582;9.962;2024-02-14T12:49:08;6.70;;;6.10;;
4748;SDS011;2388;53.582;9.962;2024-02-14T12:51:34;7.30;;;5.63;;
4748;SDS011;2388;53.582;9.962;2024-02-14T12:54:03;6.23;;;5.63;;
4748;SDS011;2388;53.582;9.962;2024-02-14T12:56:29;5.60;;;5.20;;
4748;SDS011;2388;53.582;9.962;2024-02-14T12:58:55;6.60;;;5.90;;
4748;SDS011;2388;53.582;9.962;2024-02-14T13:01:20;7.33;;;6.50;;
4748;SDS011;2388;53.582;9.962;2024-02-14T13:03:46;6.83;;;6.20;;
4748;SDS011;2388;53.582;9.962;2024-02-14T13:06:11;7.83;;;7.03;;
4748;SDS011;2388;53.582;9.962;2024-02-14T13:08:38;7.33;;;6.63;;
4748;SDS011;2388;53.582;9.962;2024-02-14T13:11:04;10.40;;;8.50;;
4748;SDS011;2388;53.582;9.962;2024-02-14T13:13:30;11.43;;;9.77;;
4748;SDS011;2388;53.582;9.962;2024-02-14T13:15:55;7.63;;;6.93;;
4748;SDS011;2388;53.582;9.962;2024-02-14T13:18:21;8.80;;;7.50;;
4748;SDS011;2388;53.582;9.962;2024-02-14T13:20:47;7.13;;;6.30;;
4748;SDS011;2388;53.582;9.962;2024-02-14T13:23:13;7.13;;;6.37;;
4748;SDS011;2388;53.582;9.962;2024-02-14T13:25:39;8.43;;;7.20;;
4748;SDS011;2388;53.582;9.962;2024-02-14T13:28:05;7.23;;;6.53;;
4748;SDS011;2388;53.582;9.962;2024-02-14T13:30:31;9.90;;;7.20;;
4748;SDS011;2388;53.582;9.962;2024-02-14T13:32:57;8.30;;;7.50;;
4748;SDS011;2388;53.582;9.962;2024-02-14T13:35:23;10.63;;;6.63;;
4748;SDS011;2388;53.582;9.962;2024-02-14T13:37:49;7.00;;;6.30;;
4748;SDS011;2388;53.582;9.962;2024-02-14T13:40:14;7.07;;;6.40;;
4748;SDS011;2388;53.582;9.962;2024-02-14T13:42:40;7.00;;;6.10;;
4748;SDS011;2388;53.582;9.962;2024-02-14T13:45:07;6.67;;;6.10;;
4748;SDS011;2388;53.582;9.962;2024-02-14T13:47:37;6.77;;;6.13;;
4748;SDS011;2388;53.582;9.962;2024-02-14T13:50:04;6.63;;;5.93;;
4748;SDS011;2388;53.582;9.962;2024-02-14T13:52:33;7.23;;;6.53;;
4748;SDS011;2388;53.582;9.962;2024-02-14T13:54:59;7.67;;;6.87;;
4748;SDS011;2388;53.582;9.962;2024-02-14T13:57:27;7.57;;;6.80;;
4748;SDS011;2388;53.582;9.962;2024-02-14T13:59:53;6.93;;;6.33;;
4748;SDS011;2388;53.582;9.962;2024-02-14T14:02:18;9.30;;;6.10;;
4748;SDS011;2388;53.582;9.962;2024-02-14T14:04:44;7.93;;;6.47;;
4748;SDS011;2388;53.582;9.962;2024-02-14T14:07:09;9.00;;;7.23;;
4748;SDS011;2388;53.582;9.962;2024-02-14T14:09:35;8.10;;;6.70;;
4748;SDS011;2388;53.582;9.962;2024-02-14T14:12:01;7.87;;;7.17;;
4748;SDS011;2388;53.582;9.962;2024-02-14T14:14:26;7.73;;;7.00;;
4748;SDS011;2388;53.582;9.962;2024-02-14T14:16:52;8.23;;;7.20;;
4748;SDS011;2388;53.582;9.962;2024-02-14T14:19:18;8.23;;;6.40;;
4748;SDS011;2388;53.582;9.962;2024-02-14T14:21:43;7.00;;;6.30;;
4748;SDS011;2388;53.582;9.962;2024-02-14T14:24:09;7.50;;;6.70;;
4748;SDS011;2388;53.582;9.962;2024-02-14T14:26:34;6.80;;;6.17;;
4748;SDS011;2388;53.582;9.962;2024-02-14T14:29:00;7.47;;;6.80;;
4748;SDS011;2388;53.582;9.962;2024-02-14T14:31:26;8.07;;;6.70;;
4748;SDS011;2388;53.582;9.962;2024-02-14T14:33:52;6.43;;;5.83;;
4748;SDS011;2388;53.582;9.962;2024-02-14T14:36:18;7.20;;;6.50;;
4748;SDS011;2388;53.582;9.962;2024-02-14T14:38:44;12.17;;;6.30;;
4748;SDS011;2388;53.582;9.962;2024-02-14T14:41:10;7.17;;;5.90;;
4748;SDS011;2388;53.582;9.962;2024-02-14T14:43:35;7.10;;;6.40;;
4748;SDS011;2388;53.582;9.962;2024-02-14T14:46:01;8.10;;;7.30;;
4748;SDS011;2388;53.582;9.962;2024-02-14T14:48:26;6.70;;;6.20;;
4748;SDS011;2388;53.582;9.962;2024-02-14T14:50:52;7.40;;;6.60;;
4748;SDS011;2388;53.582;9.962;2024-02-14T14:53:18;8.53;;;7.70;;
4748;SDS011;2388;53.582;9.962;2024-02-14T14:55:51;7.60;;;6.90;;
4748;SDS011;2388;53.582;9.962;2024-02-14T14:58:21;8.83;;;7.33;;
4748;SDS011;2388;53.582;9.962;2024-02-14T15:00:48;8.17;;;7.37;;
4748;SDS011;2388;53.582;9.962;2024-02-14T15:03:14;9.40;;;7.50;;
4748;SDS011;2388;53.582;9.962;2024-02-14T15:05:39;8.37;;;7.57;;
4748;SDS011;2388;53.582;9.962;2024-02-14T15:08:05;7.77;;;6.50;;
4748;SDS011;2388;53.582;9.962;2024-02-14T15:10:32;9.40;;;7.23;;